createdAt,value
2018-07-28T00:00:20.447Z,635.6
2018-07-28T00:01:22.640Z,635.7
2018-07-28T00:02:24.550Z,635.4
2018-07-28T00:03:26.737Z,635.6
2018-07-28T00:04:28.616Z,635.6
2018-07-28T00:05:30.813Z,635.8
2018-07-28T00:06:33.283Z,635.7
2018-07-28T00:07:35.204Z,635.7
2018-07-28T00:08:37.244Z,635.8
2018-07-28T00:09:39.350Z,636
2018-07-28T00:10:41.869Z,636.4
2018-07-28T00:11:44.349Z,636.2
2018-07-28T00:12:46.819Z,636.3
2018-07-28T00:13:49.064Z,636.5
2018-07-28T00:14:50.704Z,636.4
2018-07-28T00:15:52.893Z,636.6
2018-07-28T00:16:55.070Z,636.6
2018-07-28T00:17:57.256Z,636.7
2018-07-28T00:18:59.688Z,636.6
2018-07-28T00:20:01.619Z,636.5
2018-07-28T00:21:04.056Z,636.7
2018-07-28T00:22:06.207Z,636.6
2018-07-28T00:23:08.380Z,637.1
2018-07-28T00:24:10.565Z,637
2018-07-28T00:25:13.023Z,637.3
2018-07-28T00:26:14.936Z,637.6
2018-07-28T00:27:17.086Z,637.6
2018-07-28T00:28:19.247Z,637.6
2018-07-28T00:29:21.168Z,637.8
2018-07-28T00:30:23.620Z,637.5
2018-07-28T00:31:25.526Z,637.4
2018-07-28T00:32:27.703Z,637.6
2018-07-28T00:33:29.605Z,637.7
2018-07-28T00:34:32.063Z,637.8
2018-07-28T00:35:34.256Z,637.8
2018-07-28T00:36:36.730Z,638.1
2018-07-28T00:37:38.621Z,638
2018-07-28T00:38:40.820Z,638.1
2018-07-28T00:39:42.705Z,638.3
2018-07-28T00:40:44.646Z,638.4
2018-07-28T00:41:47.086Z,638
2018-07-28T00:42:49.000Z,638.4
2018-07-28T00:43:51.440Z,638.5
2018-07-28T00:44:53.585Z,638.5
2018-07-28T00:45:56.037Z,638.7
2018-07-28T00:46:58.196Z,638.6
2018-07-28T00:48:00.653Z,638.7
2018-07-28T00:49:03.105Z,638.6
2018-07-28T00:50:05.296Z,638.8
2018-07-28T00:51:07.230Z,638.7
2018-07-28T00:52:09.678Z,638.5
2018-07-28T00:53:12.131Z,639
2018-07-28T00:54:14.660Z,639.1
2018-07-28T00:55:16.830Z,639.1
2018-07-28T00:56:19.028Z,639
2018-07-28T00:57:21.209Z,639.2
2018-07-28T00:58:23.376Z,639
2018-07-28T00:59:25.538Z,639.4
2018-07-28T01:00:27.724Z,639.9
2018-07-28T01:01:29.081Z,639.1
2018-07-28T01:02:31.270Z,639.5
2018-07-28T01:03:33.720Z,639.4
2018-07-28T01:04:36.188Z,639.6
2018-07-28T01:05:38.100Z,639.4
2018-07-28T01:06:40.286Z,640.1
2018-07-28T01:07:42.460Z,640.1
2018-07-28T01:08:44.897Z,640.1
2018-07-28T01:09:47.345Z,640.2
2018-07-28T01:10:48.965Z,640.2
2018-07-28T01:11:51.144Z,640.6
2018-07-28T01:12:53.025Z,640.9
2018-07-28T01:13:55.218Z,640.7
2018-07-28T01:14:57.676Z,640.6
2018-07-28T01:15:59.830Z,640.3
2018-07-28T01:17:01.812Z,640.3
2018-07-28T01:18:03.976Z,640.4
2018-07-28T01:19:06.424Z,641.1
2018-07-28T01:20:08.594Z,640.7
2018-07-28T01:21:10.747Z,640.5
2018-07-28T01:22:13.186Z,641
2018-07-28T01:23:15.060Z,640.5
2018-07-28T01:24:17.242Z,640.7
2018-07-28T01:25:19.430Z,640.7
2018-07-28T01:26:21.596Z,640.7
2018-07-28T01:27:23.770Z,640.7
2018-07-28T01:28:25.673Z,640.4
2018-07-28T01:29:27.852Z,640.6
2018-07-28T01:30:30.311Z,640.8
2018-07-28T01:31:32.485Z,640.9
2018-07-28T01:32:34.378Z,641
2018-07-28T01:33:36.828Z,641.2
2018-07-28T01:34:39.000Z,641.5
2018-07-28T01:35:41.457Z,641.5
2018-07-28T01:36:43.903Z,641.5
2018-07-28T01:37:46.093Z,641.7
2018-07-28T01:38:48.276Z,641.7
2018-07-28T01:39:50.721Z,641.9
2018-07-28T01:40:52.896Z,642.2
2018-07-28T01:41:55.349Z,642.2
2018-07-28T01:42:57.522Z,642.3
2018-07-28T01:43:59.966Z,642.5
2018-07-28T01:45:02.403Z,642.6
2018-07-28T01:46:04.836Z,642.6
2018-07-28T01:47:06.733Z,642.4
2018-07-28T01:48:08.628Z,642.4
2018-07-28T01:49:10.535Z,642.5
2018-07-28T01:50:12.710Z,642.9
2018-07-28T01:51:15.153Z,642.7
2018-07-28T01:52:17.600Z,643
2018-07-28T01:53:20.051Z,642.9
2018-07-28T01:54:22.217Z,643.1
2018-07-28T01:55:24.669Z,642.6
2018-07-28T01:56:27.145Z,642.9
2018-07-28T01:57:29.320Z,642.5
2018-07-28T01:58:31.254Z,642.6
2018-07-28T01:59:33.147Z,642.5
2018-07-28T02:00:34.487Z,642.6
2018-07-28T02:01:36.402Z,642.7
2018-07-28T02:02:38.853Z,642.9
2018-07-28T02:03:41.291Z,642.9
2018-07-28T02:04:43.745Z,643.1
2018-07-28T02:05:46.191Z,643
2018-07-28T02:06:48.646Z,643.2
2018-07-28T02:07:50.818Z,643.2
2018-07-28T02:08:53.262Z,643.2
2018-07-28T02:09:55.704Z,643.1
2018-07-28T02:10:57.899Z,643.1
2018-07-28T02:12:00.059Z,643.6
2018-07-28T02:13:02.517Z,643.3
2018-07-28T02:14:04.675Z,643.1
2018-07-28T02:15:06.567Z,643.3
2018-07-28T02:16:09.016Z,643.6
2018-07-28T02:17:11.470Z,643.7
2018-07-28T02:18:13.951Z,643.9
2018-07-28T02:19:16.126Z,643.6
2018-07-28T02:20:18.033Z,643.7
2018-07-28T02:21:20.479Z,643.7
2018-07-28T02:22:22.136Z,643.5
2018-07-28T02:23:24.575Z,643.9
2018-07-28T02:24:26.499Z,643.8
2018-07-28T02:25:28.681Z,644.4
2018-07-28T02:26:31.122Z,644.5
2018-07-28T02:27:33.562Z,644.5
2018-07-28T02:28:36.010Z,644.8
2018-07-28T02:29:37.917Z,644.7
2018-07-28T02:30:40.372Z,645
2018-07-28T02:31:42.846Z,645.2
2018-07-28T02:32:45.010Z,645.5
2018-07-28T02:33:46.907Z,645.4
2018-07-28T02:34:48.831Z,645.1
2018-07-28T02:35:51.082Z,645
2018-07-28T02:36:53.517Z,644.9
2018-07-28T02:37:55.984Z,645.1
2018-07-28T02:38:57.596Z,644.9
2018-07-28T02:39:59.790Z,645.2
2018-07-28T02:41:01.975Z,645.2
2018-07-28T02:42:03.894Z,645.1
2018-07-28T02:43:05.791Z,645.3
2018-07-28T02:44:07.962Z,645.1
2018-07-28T02:45:10.606Z,645.1
2018-07-28T02:46:13.038Z,645.1
2018-07-28T02:47:15.495Z,645.2
2018-07-28T02:48:17.103Z,645.3
2018-07-28T02:49:19.277Z,645.1
2018-07-28T02:50:21.465Z,645.1
2018-07-28T02:51:23.333Z,645.1
2018-07-28T02:52:25.771Z,644.9
2018-07-28T02:53:28.223Z,645.3
2018-07-28T02:54:30.378Z,645.4
2018-07-28T02:55:32.821Z,645.1
2018-07-28T02:56:34.987Z,645.4
2018-07-28T02:57:37.156Z,644.9
2018-07-28T02:58:39.332Z,645.3
2018-07-28T02:59:41.246Z,645.3
2018-07-28T03:00:43.419Z,645.5
2018-07-28T03:01:45.604Z,645
2018-07-28T03:02:47.805Z,645
2018-07-28T03:03:50.262Z,645.2
2018-07-28T03:04:51.861Z,645.1
2018-07-28T03:05:54.308Z,644.9
2018-07-28T03:06:56.474Z,644.9
2018-07-28T03:07:58.645Z,645
2018-07-28T03:09:01.113Z,644.9
2018-07-28T03:10:03.559Z,645.7
2018-07-28T03:11:05.749Z,645.1
2018-07-28T03:12:08.196Z,645.2
2018-07-28T03:13:10.358Z,645.4
2018-07-28T03:14:11.998Z,645.7
2018-07-28T03:15:14.159Z,645.7
2018-07-28T03:16:16.326Z,645.7
2018-07-28T03:17:18.517Z,645.7
2018-07-28T03:18:20.961Z,645.5
2018-07-28T03:19:23.130Z,645.6
2018-07-28T03:20:25.023Z,645.2
2018-07-28T03:21:27.183Z,645.4
2018-07-28T03:22:29.391Z,645
2018-07-28T03:23:31.577Z,645
2018-07-28T03:24:33.757Z,645.1
2018-07-28T03:25:36.200Z,645.4
2018-07-28T03:26:38.373Z,645.2
2018-07-28T03:27:40.284Z,645.5
2018-07-28T03:28:42.468Z,645.6
2018-07-28T03:29:44.657Z,645.6
2018-07-28T03:30:47.114Z,645.9
2018-07-28T03:31:49.566Z,645.6
2018-07-28T03:32:51.735Z,645.9
2018-07-28T03:33:53.629Z,646
2018-07-28T03:34:55.791Z,645.8
2018-07-28T03:35:58.230Z,645.7
2018-07-28T03:37:00.413Z,645.7
2018-07-28T03:38:02.560Z,645.6
2018-07-28T03:39:04.162Z,645.5
2018-07-28T03:40:05.795Z,645
2018-07-28T03:41:08.230Z,645.2
2018-07-28T03:42:10.684Z,644.7
2018-07-28T03:43:12.858Z,644.5
2018-07-28T03:44:15.299Z,644.9
2018-07-28T03:45:17.479Z,644.7
2018-07-28T03:46:19.400Z,644.4
2018-07-28T03:47:21.572Z,644.3
2018-07-28T03:48:24.043Z,644
2018-07-28T03:49:26.599Z,643.9
2018-07-28T03:50:28.490Z,643.8
2018-07-28T03:51:30.940Z,643.8
2018-07-28T03:52:33.397Z,643.6
2018-07-28T03:53:35.582Z,643.6
2018-07-28T03:54:38.018Z,643.5
2018-07-28T03:55:40.201Z,643.6
2018-07-28T03:56:41.832Z,643.2
2018-07-28T03:57:44.000Z,643.4
2018-07-28T03:58:46.192Z,643.2
2018-07-28T03:59:48.368Z,643.4
2018-07-28T04:00:50.832Z,643.4
2018-07-28T04:01:53.273Z,643.1
2018-07-28T04:02:55.445Z,643.1
2018-07-28T04:03:57.623Z,643.2
2018-07-28T04:04:59.543Z,643.3
2018-07-28T04:06:01.717Z,643.3
2018-07-28T04:07:04.191Z,643.1
2018-07-28T04:08:05.831Z,643.3
2018-07-28T04:09:08.290Z,642.9
2018-07-28T04:10:10.746Z,643
2018-07-28T04:11:12.926Z,643.3
2018-07-28T04:12:15.089Z,643.2
2018-07-28T04:13:17.243Z,643.1
2018-07-28T04:14:19.285Z,643.2
2018-07-28T04:15:21.192Z,643.5
2018-07-28T04:16:23.640Z,643.3
2018-07-28T04:17:26.099Z,643.5
2018-07-28T04:18:28.539Z,643.3
2018-07-28T04:19:30.464Z,643.3
2018-07-28T04:20:32.715Z,643.7
2018-07-28T04:21:34.638Z,643.6
2018-07-28T04:22:36.846Z,643.8
2018-07-28T04:23:38.525Z,644.2
2018-07-28T04:24:40.437Z,643.6
2018-07-28T04:25:42.345Z,643.6
2018-07-28T04:26:44.829Z,643.7
2018-07-28T04:27:46.725Z,643.3
2018-07-28T04:28:49.161Z,643.5
2018-07-28T04:29:51.603Z,643.5
2018-07-28T04:30:54.048Z,642.9
2018-07-28T04:31:56.232Z,643.3
2018-07-28T04:32:58.709Z,643
2018-07-28T04:34:00.882Z,642.4
2018-07-28T04:35:03.067Z,642.2
2018-07-28T04:36:05.236Z,642.4
2018-07-28T04:37:07.843Z,642.6
2018-07-28T04:38:10.322Z,642.3
2018-07-28T04:39:12.769Z,642.6
2018-07-28T04:40:14.950Z,642.8
2018-07-28T04:41:17.123Z,642.9
2018-07-28T04:42:19.346Z,643
2018-07-28T04:43:21.000Z,642.9
2018-07-28T04:44:23.187Z,642.8
2018-07-28T04:45:25.626Z,642.5
2018-07-28T04:46:28.095Z,642.6
2018-07-28T04:47:30.002Z,642.8
2018-07-28T04:48:32.181Z,642.5
2018-07-28T04:49:34.654Z,642.6
2018-07-28T04:50:37.102Z,642.5
2018-07-28T04:51:39.557Z,642.2
2018-07-28T04:52:42.039Z,642.5
2018-07-28T04:53:44.223Z,642.4
2018-07-28T04:54:46.663Z,642.2
2018-07-28T04:55:48.855Z,641.9
2018-07-28T04:56:51.039Z,642.3
2018-07-28T04:57:53.485Z,642.5
2018-07-28T04:58:55.930Z,642.6
2018-07-28T04:59:58.134Z,642.8
2018-07-28T05:01:00.039Z,643.2
2018-07-28T05:02:02.210Z,642.7
2018-07-28T05:03:04.374Z,643.1
2018-07-28T05:04:06.558Z,642.7
2018-07-28T05:05:08.491Z,642.8
2018-07-28T05:06:10.652Z,642.4
2018-07-28T05:07:13.231Z,642.1
2018-07-28T05:08:15.690Z,642.1
2018-07-28T05:09:17.867Z,642.5
2018-07-28T05:10:20.057Z,642
2018-07-28T05:11:22.220Z,642.2
2018-07-28T05:12:24.667Z,642
2018-07-28T05:13:27.115Z,642.1
2018-07-28T05:14:29.581Z,642.5
2018-07-28T05:15:32.041Z,642.4
2018-07-28T05:16:34.201Z,642.3
2018-07-28T05:17:36.663Z,642.8
2018-07-28T05:18:39.108Z,642.8
2018-07-28T05:19:40.786Z,642.6
2018-07-28T05:20:42.969Z,642.5
2018-07-28T05:21:44.877Z,642.8
2018-07-28T05:22:47.071Z,642.6
2018-07-28T05:23:49.198Z,642.7
2018-07-28T05:24:51.166Z,642.8
2018-07-28T05:25:53.324Z,642.8
2018-07-28T05:26:55.776Z,642.6
2018-07-28T05:27:57.689Z,642.5
2018-07-28T05:28:59.865Z,642.4
2018-07-28T05:30:01.756Z,642.4
2018-07-28T05:31:03.365Z,642.4
2018-07-28T05:32:05.817Z,642.3
2018-07-28T05:33:08.004Z,642.2
2018-07-28T05:34:09.907Z,642.1
2018-07-28T05:35:12.103Z,642
2018-07-28T05:36:14.287Z,641.6
2018-07-28T05:37:16.747Z,641.9
2018-07-28T05:38:18.997Z,642.5
2018-07-28T05:39:20.877Z,642.1
2018-07-28T05:40:23.063Z,641.7
2018-07-28T05:41:25.511Z,642
2018-07-28T05:42:27.773Z,641.5
2018-07-28T05:43:29.950Z,641.4
2018-07-28T05:44:32.102Z,641.8
2018-07-28T05:45:34.556Z,641.7
2018-07-28T05:46:36.465Z,641.4
2018-07-28T05:47:38.064Z,641.5
2018-07-28T05:48:39.971Z,641.4
2018-07-28T05:49:42.158Z,641.8
2018-07-28T05:50:44.337Z,641.4
2018-07-28T05:51:46.782Z,641.7
2018-07-28T05:52:49.489Z,641.7
2018-07-28T05:53:51.443Z,641.7
2018-07-28T05:54:53.345Z,642
2018-07-28T05:55:55.790Z,642.3
2018-07-28T05:56:57.971Z,642.8
2018-07-28T05:58:00.417Z,642.6
2018-07-28T05:59:02.865Z,642.9
2018-07-28T06:00:05.300Z,642.6
2018-07-28T06:01:06.939Z,642.5
2018-07-28T06:02:09.239Z,642.6
2018-07-28T06:03:11.469Z,642.5
2018-07-28T06:04:13.653Z,642.3
2018-07-28T06:05:15.540Z,642
2018-07-28T06:06:17.988Z,641.9
2018-07-28T06:07:19.879Z,642.1
2018-07-28T06:08:22.055Z,641.9
2018-07-28T06:09:24.506Z,642
2018-07-28T06:10:26.157Z,641.8
2018-07-28T06:11:28.047Z,641.6
2018-07-28T06:12:29.957Z,641.5
2018-07-28T06:13:31.571Z,641.6
2018-07-28T06:14:34.032Z,641.5
2018-07-28T06:15:36.487Z,641.1
2018-07-28T06:16:38.401Z,640.9
2018-07-28T06:17:40.569Z,640.7
2018-07-28T06:18:43.017Z,640.6
2018-07-28T06:19:45.484Z,641
2018-07-28T06:20:47.648Z,640.5
2018-07-28T06:21:50.112Z,640.8
2018-07-28T06:22:52.291Z,640.8
2018-07-28T06:23:54.736Z,640.6
2018-07-28T06:24:57.205Z,640.5
2018-07-28T06:25:59.946Z,640.3
2018-07-28T06:27:02.146Z,640.6
2018-07-28T06:28:04.027Z,640.3
2018-07-28T06:29:06.217Z,640.7
2018-07-28T06:30:08.670Z,640.8
2018-07-28T06:31:10.934Z,640.8
2018-07-28T06:32:13.163Z,641
2018-07-28T06:33:15.113Z,640.9
2018-07-28T06:34:17.046Z,640.9
2018-07-28T06:35:19.496Z,640.5
2018-07-28T06:36:21.726Z,641
2018-07-28T06:37:24.157Z,640.2
2018-07-28T06:38:26.657Z,640.4
2018-07-28T06:39:28.647Z,640.4
2018-07-28T06:40:31.088Z,640.6
2018-07-28T06:41:33.268Z,640.5
2018-07-28T06:42:35.724Z,640.9
2018-07-28T06:43:37.633Z,640.4
2018-07-28T06:44:39.810Z,640.7
2018-07-28T06:45:41.979Z,640.5
2018-07-28T06:46:44.443Z,640.4
2018-07-28T06:47:46.633Z,640.8
2018-07-28T06:48:48.818Z,640.2
2018-07-28T06:49:51.259Z,640.4
2018-07-28T06:50:53.714Z,640.6
2018-07-28T06:51:55.617Z,640.1
2018-07-28T06:52:57.506Z,640.7
2018-07-28T06:53:59.690Z,640.3
2018-07-28T06:55:02.235Z,640.1
2018-07-28T06:56:04.440Z,640.2
2018-07-28T06:57:06.918Z,640.2
2018-07-28T06:58:09.431Z,640.2
2018-07-28T06:59:11.597Z,639.6
2018-07-28T07:00:14.071Z,639.5
2018-07-28T07:01:15.957Z,639.4
2018-07-28T07:02:18.138Z,639.6
2018-07-28T07:03:20.588Z,639.6
2018-07-28T07:04:23.052Z,639.2
2018-07-28T07:05:25.227Z,639.2
2018-07-28T07:06:27.375Z,639.1
2018-07-28T07:07:29.326Z,639.3
2018-07-28T07:08:31.771Z,639.1
2018-07-28T07:09:33.687Z,639.1
2018-07-28T07:10:35.878Z,639.4
2018-07-28T07:11:38.207Z,639.4
2018-07-28T07:12:40.251Z,639.5
2018-07-28T07:13:42.422Z,639.4
2018-07-28T07:14:44.057Z,639.6
2018-07-28T07:15:46.212Z,639.6
2018-07-28T07:16:48.398Z,639.2
2018-07-28T07:17:50.863Z,639.3
2018-07-28T07:18:53.033Z,639.7
2018-07-28T07:19:55.186Z,639.4
2018-07-28T07:20:57.368Z,639.6
2018-07-28T07:21:59.246Z,639.3
2018-07-28T07:23:01.694Z,639.4
2018-07-28T07:24:03.583Z,639.4
2018-07-28T07:25:06.032Z,639.5
2018-07-28T07:26:08.496Z,639.2
2018-07-28T07:27:10.709Z,639.4
2018-07-28T07:28:13.159Z,639
2018-07-28T07:29:15.608Z,639
2018-07-28T07:30:17.811Z,639.2
2018-07-28T07:31:20.248Z,638.8
2018-07-28T07:32:22.141Z,639
2018-07-28T07:33:24.328Z,639.3
2018-07-28T07:34:26.797Z,639.1
2018-07-28T07:35:29.020Z,639.2
2018-07-28T07:36:31.456Z,639.1
2018-07-28T07:37:33.896Z,638.9
2018-07-28T07:38:36.376Z,638.7
2018-07-28T07:39:37.989Z,638.6
2018-07-28T07:40:40.628Z,638.6
2018-07-28T07:41:42.479Z,638.8
2018-07-28T07:42:44.706Z,638.6
2018-07-28T07:43:46.856Z,638.4
2018-07-28T07:44:49.047Z,638.4
2018-07-28T07:45:51.518Z,638.2
2018-07-28T07:46:53.407Z,638.6
2018-07-28T07:47:55.583Z,638.6
2018-07-28T07:48:58.047Z,638.7
2018-07-28T07:50:00.231Z,638.8
2018-07-28T07:51:02.406Z,638.7
2018-07-28T07:52:04.891Z,638.7
2018-07-28T07:53:07.346Z,639.1
2018-07-28T07:54:09.248Z,639
2018-07-28T07:55:11.416Z,639.1
2018-07-28T07:56:13.319Z,639.3
2018-07-28T07:57:15.775Z,639
2018-07-28T07:58:17.961Z,639.3
2018-07-28T07:59:20.141Z,638.9
2018-07-28T08:00:22.368Z,639
2018-07-28T08:01:24.905Z,639.2
2018-07-28T08:02:26.859Z,638.9
2018-07-28T08:03:28.847Z,639.4
2018-07-28T08:04:31.096Z,638.8
2018-07-28T08:05:33.574Z,638.8
2018-07-28T08:06:36.427Z,638.9
2018-07-28T08:07:38.608Z,638.7
2018-07-28T08:08:41.060Z,639
2018-07-28T08:09:43.235Z,639.1
2018-07-28T08:10:45.681Z,639.7
2018-07-28T08:11:48.146Z,639.6
2018-07-28T08:12:50.613Z,640
2018-07-28T08:13:52.790Z,639.6
2018-07-28T08:14:55.195Z,639.4
2018-07-28T08:15:57.383Z,639.8
2018-07-28T08:16:59.320Z,639.8
2018-07-28T08:18:01.515Z,639.7
2018-07-28T08:19:03.703Z,639.9
2018-07-28T08:20:05.887Z,639.6
2018-07-28T08:21:08.921Z,639.7
2018-07-28T08:22:11.113Z,639.3
2018-07-28T08:23:13.566Z,639.4
2018-07-28T08:24:16.021Z,639.5
2018-07-28T08:25:18.199Z,639.2
2018-07-28T08:26:20.074Z,639.5
2018-07-28T08:27:22.535Z,639.2
2018-07-28T08:28:24.752Z,639.1
2018-07-28T08:29:26.635Z,638.9
2018-07-28T08:30:28.557Z,638.8
2018-07-28T08:31:30.754Z,638.6
2018-07-28T08:32:33.239Z,638.9
2018-07-28T08:33:35.696Z,638.9
2018-07-28T08:34:37.867Z,638.7
2018-07-28T08:35:40.054Z,638.6
2018-07-28T08:36:42.514Z,638.6
2018-07-28T08:37:44.173Z,638.2
2018-07-28T08:38:46.647Z,638.3
2018-07-28T08:39:49.055Z,638.2
2018-07-28T08:40:51.239Z,637.9
2018-07-28T08:41:53.697Z,637.8
2018-07-28T08:42:55.591Z,638.1
2018-07-28T08:43:57.498Z,637.9
2018-07-28T08:44:59.681Z,637.6
2018-07-28T08:46:01.859Z,637.4
2018-07-28T08:47:04.117Z,637.4
2018-07-28T08:48:06.298Z,636.9
2018-07-28T08:49:09.780Z,637
2018-07-28T08:50:12.322Z,636.9
2018-07-28T08:51:14.507Z,636.8
2018-07-28T08:52:16.703Z,637.1
2018-07-28T08:53:19.147Z,637.1
2018-07-28T08:54:21.613Z,636.7
2018-07-28T08:55:24.172Z,636.9
2018-07-28T08:56:26.341Z,637.3
2018-07-28T08:57:28.488Z,636.8
2018-07-28T08:58:30.941Z,636.9
2018-07-28T08:59:33.396Z,636.8
2018-07-28T09:00:35.846Z,636.9
2018-07-28T09:01:38.318Z,636.7
2018-07-28T09:02:40.208Z,636.8
2018-07-28T09:03:42.658Z,636.9
2018-07-28T09:04:45.118Z,636.5
2018-07-28T09:05:47.318Z,636.4
2018-07-28T09:06:49.768Z,636.6
2018-07-28T09:07:52.240Z,636.7
2018-07-28T09:08:54.419Z,636.5
2018-07-28T09:09:56.880Z,636.7
2018-07-28T09:10:59.076Z,636.5
2018-07-28T09:12:01.274Z,636.7
2018-07-28T09:13:03.721Z,636.9
2018-07-28T09:14:05.879Z,636.9
2018-07-28T09:15:08.068Z,636.6
2018-07-28T09:16:10.531Z,636.6
2018-07-28T09:17:12.987Z,636.6
2018-07-28T09:18:15.439Z,636.4
2018-07-28T09:19:17.903Z,636.5
2018-07-28T09:20:20.072Z,636.8
2018-07-28T09:21:22.523Z,636.5
2018-07-28T09:22:24.719Z,636.4
2018-07-28T09:23:27.746Z,636.6
2018-07-28T09:24:30.187Z,636.4
2018-07-28T09:25:32.362Z,636.5
2018-07-28T09:26:34.835Z,636.6
2018-07-28T09:27:37.294Z,636.8
2018-07-28T09:28:39.501Z,636.6
2018-07-28T09:29:41.130Z,636.6
2018-07-28T09:30:43.926Z,636.5
2018-07-28T09:31:46.458Z,636.6
2018-07-28T09:32:48.640Z,636.6
2018-07-28T09:33:51.089Z,636.6
2018-07-28T09:34:53.273Z,636.8
2018-07-28T09:35:55.432Z,637.2
2018-07-28T09:36:58.276Z,636.9
2018-07-28T09:38:00.065Z,636.9
2018-07-28T09:39:01.977Z,636.6
2018-07-28T09:40:04.430Z,636.8
2018-07-28T09:41:06.887Z,636.9
2018-07-28T09:42:09.336Z,636.8
2018-07-28T09:43:11.529Z,636.6
2018-07-28T09:44:13.422Z,636.6
2018-07-28T09:45:16.004Z,636.6
2018-07-28T09:46:18.280Z,636.7
2018-07-28T09:47:20.447Z,636.7
2018-07-28T09:48:22.657Z,636.4
2018-07-28T09:49:24.843Z,636.2
2018-07-28T09:50:27.017Z,636.4
2018-07-28T09:51:29.189Z,636.3
2018-07-28T09:52:31.652Z,636.1
2018-07-28T09:53:33.552Z,636
2018-07-28T09:54:35.739Z,636.2
2018-07-28T09:55:37.888Z,636
2018-07-28T09:56:40.068Z,636.4
2018-07-28T09:57:42.529Z,636.3
2018-07-28T09:58:44.994Z,636.1
2018-07-28T09:59:47.439Z,636.3
2018-07-28T10:00:49.606Z,636.5
2018-07-28T10:01:52.064Z,635.9
2018-07-28T10:02:54.547Z,636.1
2018-07-28T10:03:56.521Z,635.6
2018-07-28T10:04:58.438Z,635.3
2018-07-28T10:06:00.626Z,635.5
2018-07-28T10:07:02.810Z,635.7
2018-07-28T10:08:04.699Z,635.5
2018-07-28T10:09:07.145Z,635.2
2018-07-28T10:10:09.062Z,635.4
2018-07-28T10:11:11.239Z,635.5
2018-07-28T10:12:12.861Z,635.4
2018-07-28T10:13:15.321Z,635.6
2018-07-28T10:14:17.510Z,635.4
2018-07-28T10:15:19.695Z,634.6
2018-07-28T10:16:22.757Z,634.4
2018-07-28T10:17:25.297Z,634.5
2018-07-28T10:18:27.479Z,634.8
2018-07-28T10:19:29.937Z,634.5
2018-07-28T10:20:32.398Z,634.1
2018-07-28T10:21:34.038Z,634.7
2018-07-28T10:22:36.247Z,634.5
2018-07-28T10:23:38.408Z,634.6
2018-07-28T10:24:41.290Z,634
2018-07-28T10:25:43.517Z,634.2
2018-07-28T10:26:45.981Z,634.1
2018-07-28T10:27:48.432Z,634
2018-07-28T10:28:50.877Z,634.3
2018-07-28T10:29:53.059Z,633.3
2018-07-28T10:30:55.237Z,633.4
2018-07-28T10:31:57.378Z,633
2018-07-28T10:32:58.987Z,632.7
2018-07-28T10:34:01.488Z,632.7
2018-07-28T10:35:03.934Z,632.5
2018-07-28T10:36:06.387Z,632.3
2018-07-28T10:37:08.021Z,632.4
2018-07-28T10:38:10.205Z,632.6
2018-07-28T10:39:12.075Z,632.2
2018-07-28T10:40:13.970Z,632
2018-07-28T10:41:16.145Z,632.3
2018-07-28T10:42:18.046Z,632.2
2018-07-28T10:43:19.921Z,632.5
2018-07-28T10:44:22.373Z,632.6
2018-07-28T10:45:24.557Z,632.5
2018-07-28T10:46:26.443Z,632.6
2018-07-28T10:47:28.887Z,632.6
2018-07-28T10:48:31.077Z,632.7
2018-07-28T10:49:33.251Z,632.8
2018-07-28T10:50:35.708Z,632.3
2018-07-28T10:51:38.196Z,632.6
2018-07-28T10:52:40.647Z,632.4
2018-07-28T10:53:42.551Z,632
2018-07-28T10:54:44.724Z,631.5
2018-07-28T10:55:46.595Z,632.1
2018-07-28T10:56:48.779Z,632
2018-07-28T10:57:50.963Z,632.1
2018-07-28T10:58:53.403Z,632.1
2018-07-28T10:59:55.954Z,631.6
2018-07-28T11:00:58.116Z,632
2018-07-28T11:01:59.760Z,632.1
2018-07-28T11:03:01.913Z,631.9
2018-07-28T11:04:03.559Z,632
2018-07-28T11:05:05.739Z,632
2018-07-28T11:06:07.925Z,631.5
2018-07-28T11:07:09.847Z,632
2018-07-28T11:08:12.301Z,631.7
2018-07-28T11:09:15.253Z,631.8
2018-07-28T11:10:17.022Z,631.7
2018-07-28T11:11:19.198Z,631.3
2018-07-28T11:12:21.404Z,631.8
2018-07-28T11:13:23.303Z,631.3
2018-07-28T11:14:25.217Z,631.4
2018-07-28T11:15:27.436Z,631.3
2018-07-28T11:16:29.624Z,631.3
2018-07-28T11:17:31.510Z,631.4
2018-07-28T11:18:34.095Z,631.1
2018-07-28T11:19:36.256Z,631
2018-07-28T11:20:38.138Z,631.2
2018-07-28T11:21:39.780Z,631.4
2018-07-28T11:22:42.763Z,631.5
2018-07-28T11:23:45.013Z,631.3
2018-07-28T11:24:46.884Z,631.3
2018-07-28T11:25:49.085Z,631.3
2018-07-28T11:26:51.523Z,631.4
2018-07-28T11:27:53.981Z,632
2018-07-28T11:28:55.588Z,631.6
2018-07-28T11:29:58.032Z,631.5
2018-07-28T11:30:59.912Z,631.3
2018-07-28T11:32:02.355Z,631.6
2018-07-28T11:33:04.625Z,630.9
2018-07-28T11:34:06.531Z,631.5
2018-07-28T11:35:08.982Z,631.2
2018-07-28T11:36:10.599Z,631.1
2018-07-28T11:37:13.053Z,630.8
2018-07-28T11:38:15.198Z,630.8
2018-07-28T11:39:17.679Z,630.5
2018-07-28T11:40:19.830Z,631
2018-07-28T11:41:22.296Z,630.8
2018-07-28T11:42:24.208Z,630.7
2018-07-28T11:43:26.529Z,630.1
2018-07-28T11:44:28.716Z,630.1
2018-07-28T11:45:31.177Z,629.8
2018-07-28T11:46:33.349Z,630.2
2018-07-28T11:47:35.603Z,630.1
2018-07-28T11:48:38.105Z,630.3
2018-07-28T11:49:40.122Z,630.8
2018-07-28T11:50:42.610Z,631.3
2018-07-28T11:51:44.790Z,630.8
2018-07-28T11:52:46.736Z,630.6
2018-07-28T11:53:48.914Z,630.6
2018-07-28T11:54:51.395Z,630.3
2018-07-28T11:55:53.871Z,630.8
2018-07-28T11:56:55.513Z,630.8
2018-07-28T11:57:58.129Z,630.2
2018-07-28T11:59:00.036Z,630.9
2018-07-28T12:00:02.488Z,631.2
2018-07-28T12:01:04.941Z,630.9
2018-07-28T12:02:07.396Z,631.3
2018-07-28T12:03:09.849Z,630.7
2018-07-28T12:04:12.028Z,631.1
2018-07-28T12:05:14.227Z,630.9
2018-07-28T12:06:16.681Z,631.3
2018-07-28T12:07:18.586Z,631.1
2018-07-28T12:08:20.807Z,631.3
2018-07-28T12:09:23.255Z,631.5
2018-07-28T12:10:25.207Z,631.4
2018-07-28T12:11:27.657Z,631.4
2018-07-28T12:12:29.920Z,631.5
2018-07-28T12:13:32.041Z,631
2018-07-28T12:14:33.960Z,631.8
2018-07-28T12:15:36.515Z,631.6
2018-07-28T12:16:38.759Z,631.3
2018-07-28T12:17:41.211Z,631.2
2018-07-28T12:18:43.385Z,630.8
2018-07-28T12:19:45.839Z,631.2
2018-07-28T12:20:48.288Z,631.1
2018-07-28T12:21:50.736Z,631.2
2018-07-28T12:22:53.191Z,630.7
2018-07-28T12:23:55.262Z,630.5
2018-07-28T12:24:57.760Z,630.5
2018-07-28T12:26:00.221Z,631.2
2018-07-28T12:27:02.387Z,630.7
2018-07-28T12:28:04.839Z,630.7
2018-07-28T12:29:07.025Z,630.4
2018-07-28T12:30:09.481Z,630.2
2018-07-28T12:31:11.376Z,629.7
2018-07-28T12:32:13.550Z,629.4
2018-07-28T12:33:15.995Z,629.2
2018-07-28T12:34:18.184Z,629.5
2018-07-28T12:35:20.357Z,629.3
2018-07-28T12:36:22.548Z,629.6
2018-07-28T12:37:24.722Z,629.4
2018-07-28T12:38:26.618Z,629.6
2018-07-28T12:39:28.786Z,628.7
2018-07-28T12:40:31.271Z,629.4
2018-07-28T12:41:33.450Z,628.9
2018-07-28T12:42:35.633Z,629.2
2018-07-28T12:43:37.244Z,628.9
2018-07-28T12:44:39.689Z,628.5
2018-07-28T12:45:41.874Z,628.6
2018-07-28T12:46:43.525Z,628.7
2018-07-28T12:47:46.001Z,628.4
2018-07-28T12:48:48.462Z,628.3
2018-07-28T12:49:50.640Z,628.4
2018-07-28T12:50:52.805Z,627.8
2018-07-28T12:51:55.250Z,627.6
2018-07-28T12:52:57.430Z,627.1
2018-07-28T12:53:59.340Z,627.8
2018-07-28T12:55:01.786Z,627.9
2018-07-28T12:56:03.941Z,627.7
2018-07-28T12:57:06.399Z,627.1
2018-07-28T12:58:08.566Z,626.5
2018-07-28T12:59:10.521Z,626.5
2018-07-28T13:00:12.697Z,626.2
2018-07-28T13:01:14.877Z,626.6
2018-07-28T13:02:17.048Z,626.2
2018-07-28T13:03:19.225Z,626.4
2018-07-28T13:04:21.423Z,626.4
2018-07-28T13:05:23.616Z,626.5
2018-07-28T13:06:25.777Z,626.5
2018-07-28T13:07:28.237Z,626.1
2018-07-28T13:08:30.427Z,625.7
2018-07-28T13:09:32.747Z,626.1
2018-07-28T13:10:35.022Z,626
2018-07-28T13:11:37.338Z,625.8
2018-07-28T13:12:39.509Z,625.8
2018-07-28T13:13:41.964Z,625
2018-07-28T13:14:44.221Z,625.5
2018-07-28T13:15:46.742Z,625.3
2018-07-28T13:16:49.202Z,625.9
2018-07-28T13:17:51.559Z,625.6
2018-07-28T13:18:53.735Z,625.8
2018-07-28T13:19:55.653Z,625.7
2018-07-28T13:20:57.815Z,625.7
2018-07-28T13:22:00.004Z,625.7
2018-07-28T13:23:02.533Z,625.7
2018-07-28T13:24:04.968Z,625.8
2018-07-28T13:25:06.297Z,626.1